sensor_id;sensor_type;location;lat;lon;timestamp;P1;durP1;ratioP1;P2;durP2;ratioP2
44746;SDS011;30472;49.490;10.972;2023-05-07T00:01:48;9.57;;;7.63;;
44746;SDS011;30472;49.490;10.972;2023-05-07T00:04:13;8.77;;;7.73;;
44746;SDS011;30472;49.490;10.972;2023-05-07T00:06:39;9.63;;;6.90;;
44746;SDS011;30472;49.490;10.972;2023-05-07T00:09:05;9.03;;;7.30;;
44746;SDS011;30472;49.490;10.972;2023-05-07T00:11:31;8.07;;;7.33;;
44746;SDS011;30472;49.490;10.972;2023-05-07T00:13:58;9.90;;;7.13;;
44746;SDS011;30472;49.490;10.972;2023-05-07T00:16:23;7.23;;;6.53;;
44746;SDS011;30472;49.490;10.972;2023-05-07T00:18:49;9.90;;;7.20;;
44746;SDS011;30472;49.490;10.972;2023-05-07T00:21:15;7.07;;;6.40;;
44746;SDS011;30472;49.490;10.972;2023-05-07T00:23:41;6.97;;;6.27;;
44746;SDS011;30472;49.490;10.972;2023-05-07T00:26:06;9.00;;;7.57;;
44746;SDS011;30472;49.490;10.972;2023-05-07T00:28:32;9.63;;;6.97;;
44746;SDS011;30472;49.490;10.972;2023-05-07T00:30:57;11.07;;;8.40;;
44746;SDS011;30472;49.490;10.972;2023-05-07T00:33:23;8.67;;;7.53;;
44746;SDS011;30472;49.490;10.972;2023-05-07T00:35:51;8.70;;;7.43;;
44746;SDS011;30472;49.490;10.972;2023-05-07T00:38:17;10.50;;;7.30;;
44746;SDS011;30472;49.490;10.972;2023-05-07T00:40:42;8.13;;;7.33;;
44746;SDS011;30472;49.490;10.972;2023-05-07T00:43:08;7.97;;;7.17;;
44746;SDS011;30472;49.490;10.972;2023-05-07T00:45:33;8.33;;;7.60;;
44746;SDS011;30472;49.490;10.972;2023-05-07T00:48:00;7.03;;;6.33;;
44746;SDS011;30472;49.490;10.972;2023-05-07T00:50:27;5.97;;;5.37;;
44746;SDS011;30472;49.490;10.972;2023-05-07T00:52:53;6.93;;;6.33;;
44746;SDS011;30472;49.490;10.972;2023-05-07T00:55:20;6.97;;;5.37;;
44746;SDS011;30472;49.490;10.972;2023-05-07T00:57:46;5.13;;;4.73;;
44746;SDS011;30472;49.490;10.972;2023-05-07T01:00:12;6.87;;;4.77;;
44746;SDS011;30472;49.490;10.972;2023-05-07T01:02:38;4.53;;;4.20;;
44746;SDS011;30472;49.490;10.972;2023-05-07T01:05:05;6.40;;;4.67;;
44746;SDS011;30472;49.490;10.972;2023-05-07T01:07:32;6.47;;;4.20;;
44746;SDS011;30472;49.490;10.972;2023-05-07T01:09:59;4.50;;;4.10;;
44746;SDS011;30472;49.490;10.972;2023-05-07T01:12:25;5.03;;;4.33;;
44746;SDS011;30472;49.490;10.972;2023-05-07T01:14:52;5.90;;;4.40;;
44746;SDS011;30472;49.490;10.972;2023-05-07T01:17:18;4.67;;;4.33;;
44746;SDS011;30472;49.490;10.972;2023-05-07T01:19:44;6.30;;;3.50;;
44746;SDS011;30472;49.490;10.972;2023-05-07T01:22:10;4.23;;;3.90;;
44746;SDS011;30472;49.490;10.972;2023-05-07T01:24:36;4.67;;;3.63;;
44746;SDS011;30472;49.490;10.972;2023-05-07T01:27:02;4.00;;;3.60;;
44746;SDS011;30472;49.490;10.972;2023-05-07T01:29:28;5.93;;;3.33;;
44746;SDS011;30472;49.490;10.972;2023-05-07T01:31:56;5.23;;;3.77;;
44746;SDS011;30472;49.490;10.972;2023-05-07T01:34:23;3.67;;;3.33;;
44746;SDS011;30472;49.490;10.972;2023-05-07T01:36:52;3.93;;;3.63;;
44746;SDS011;30472;49.490;10.972;2023-05-07T01:39:18;6.20;;;3.97;;
44746;SDS011;30472;49.490;10.972;2023-05-07T01:41:44;4.57;;;3.60;;
44746;SDS011;30472;49.490;10.972;2023-05-07T01:44:11;6.10;;;3.60;;
44746;SDS011;30472;49.490;10.972;2023-05-07T01:46:38;11.87;;;3.97;;
44746;SDS011;30472;49.490;10.972;2023-05-07T01:49:03;7.90;;;4.57;;
44746;SDS011;30472;49.490;10.972;2023-05-07T01:51:29;6.90;;;4.13;;
44746;SDS011;30472;49.490;10.972;2023-05-07T01:53:56;7.50;;;4.23;;
44746;SDS011;30472;49.490;10.972;2023-05-07T01:56:22;8.40;;;4.40;;
44746;SDS011;30472;49.490;10.972;2023-05-07T01:58:49;7.37;;;3.60;;
44746;SDS011;30472;49.490;10.972;2023-05-07T02:01:16;8.67;;;4.23;;
44746;SDS011;30472;49.490;10.972;2023-05-07T02:03:43;11.13;;;4.57;;
44746;SDS011;30472;49.490;10.972;2023-05-07T02:06:08;5.13;;;4.27;;
44746;SDS011;30472;49.490;10.972;2023-05-07T02:08:34;10.47;;;4.63;;
44746;SDS011;30472;49.490;10.972;2023-05-07T02:11:00;4.73;;;4.23;;
44746;SDS011;30472;49.490;10.972;2023-05-07T02:13:29;4.57;;;4.17;;
44746;SDS011;30472;49.490;10.972;2023-05-07T02:15:56;6.27;;;4.27;;
44746;SDS011;30472;49.490;10.972;2023-05-07T02:18:22;11.60;;;3.83;;
44746;SDS011;30472;49.490;10.972;2023-05-07T02:20:48;6.97;;;4.53;;
44746;SDS011;30472;49.490;10.972;2023-05-07T02:23:13;5.50;;;3.93;;
44746;SDS011;30472;49.490;10.972;2023-05-07T02:25:39;5.90;;;4.20;;
44746;SDS011;30472;49.490;10.972;2023-05-07T02:28:04;5.10;;;4.60;;
44746;SDS011;30472;49.490;10.972;2023-05-07T02:30:30;5.50;;;4.23;;
44746;SDS011;30472;49.490;10.972;2023-05-07T02:32:55;9.70;;;6.83;;
44746;SDS011;30472;49.490;10.972;2023-05-07T02:35:21;6.17;;;5.57;;
44746;SDS011;30472;49.490;10.972;2023-05-07T02:37:46;6.17;;;5.57;;
44746;SDS011;30472;49.490;10.972;2023-05-07T02:40:12;8.17;;;6.97;;
44746;SDS011;30472;49.490;10.972;2023-05-07T02:42:38;6.10;;;5.33;;
44746;SDS011;30472;49.490;10.972;2023-05-07T02:45:03;5.93;;;5.00;;
44746;SDS011;30472;49.490;10.972;2023-05-07T02:47:29;6.37;;;5.67;;
44746;SDS011;30472;49.490;10.972;2023-05-07T02:49:55;8.43;;;5.53;;
44746;SDS011;30472;49.490;10.972;2023-05-07T02:52:21;6.03;;;5.20;;
44746;SDS011;30472;49.490;10.972;2023-05-07T02:54:47;6.37;;;5.80;;
44746;SDS011;30472;49.490;10.972;2023-05-07T02:57:12;5.67;;;4.83;;
44746;SDS011;30472;49.490;10.972;2023-05-07T02:59:38;6.00;;;5.37;;
44746;SDS011;30472;49.490;10.972;2023-05-07T03:02:03;5.60;;;5.17;;
44746;SDS011;30472;49.490;10.972;2023-05-07T03:04:29;5.77;;;5.03;;
44746;SDS011;30472;49.490;10.972;2023-05-07T03:06:54;5.90;;;5.40;;
44746;SDS011;30472;49.490;10.972;2023-05-07T03:09:20;7.73;;;5.23;;
44746;SDS011;30472;49.490;10.972;2023-05-07T03:11:46;5.33;;;4.87;;
44746;SDS011;30472;49.490;10.972;2023-05-07T03:14:11;7.50;;;5.83;;
44746;SDS011;30472;49.490;10.972;2023-05-07T03:16:37;6.70;;;6.00;;
44746;SDS011;30472;49.490;10.972;2023-05-07T03:19:03;7.17;;;6.47;;
44746;SDS011;30472;49.490;10.972;2023-05-07T03:21:28;6.93;;;6.30;;
44746;SDS011;30472;49.490;10.972;2023-05-07T03:23:55;6.73;;;6.13;;
44746;SDS011;30472;49.490;10.972;2023-05-07T03:26:21;7.60;;;6.17;;
44746;SDS011;30472;49.490;10.972;2023-05-07T03:28:46;7.80;;;7.03;;
44746;SDS011;30472;49.490;10.972;2023-05-07T03:31:12;8.67;;;6.30;;
44746;SDS011;30472;49.490;10.972;2023-05-07T03:33:42;9.00;;;7.20;;
44746;SDS011;30472;49.490;10.972;2023-05-07T03:36:21;7.43;;;6.73;;
44746;SDS011;30472;49.490;10.972;2023-05-07T03:38:48;7.33;;;6.70;;
44746;SDS011;30472;49.490;10.972;2023-05-07T03:41:14;8.50;;;7.70;;
44746;SDS011;30472;49.490;10.972;2023-05-07T03:43:40;7.87;;;7.07;;
44746;SDS011;30472;49.490;10.972;2023-05-07T03:46:06;9.90;;;8.50;;
44746;SDS011;30472;49.490;10.972;2023-05-07T03:48:31;8.03;;;7.23;;
44746;SDS011;30472;49.490;10.972;2023-05-07T03:50:57;8.03;;;7.30;;
44746;SDS011;30472;49.490;10.972;2023-05-07T03:53:23;9.50;;;8.50;;
44746;SDS011;30472;49.490;10.972;2023-05-07T03:55:49;8.60;;;7.77;;
44746;SDS011;30472;49.490;10.972;2023-05-07T03:58:14;9.77;;;7.27;;
44746;SDS011;30472;49.490;10.972;2023-05-07T04:00:40;8.40;;;7.60;;
44746;SDS011;30472;49.490;10.972;2023-05-07T04:03:06;8.70;;;7.90;;
44746;SDS011;30472;49.490;10.972;2023-05-07T04:05:32;9.17;;;7.67;;
44746;SDS011;30472;49.490;10.972;2023-05-07T04:07:58;7.80;;;7.13;;
44746;SDS011;30472;49.490;10.972;2023-05-07T04:10:24;10.97;;;7.47;;
44746;SDS011;30472;49.490;10.972;2023-05-07T04:12:49;8.87;;;8.00;;
44746;SDS011;30472;49.490;10.972;2023-05-07T04:15:15;9.30;;;8.40;;
44746;SDS011;30472;49.490;10.972;2023-05-07T04:17:41;9.37;;;8.33;;
44746;SDS011;30472;49.490;10.972;2023-05-07T04:20:08;11.77;;;8.30;;
44746;SDS011;30472;49.490;10.972;2023-05-07T04:22:35;8.63;;;7.60;;
44746;SDS011;30472;49.490;10.972;2023-05-07T04:25:01;10.00;;;8.00;;
44746;SDS011;30472;49.490;10.972;2023-05-07T04:27:27;8.80;;;7.90;;
44746;SDS011;30472;49.490;10.972;2023-05-07T04:29:53;8.33;;;7.27;;
44746;SDS011;30472;49.490;10.972;2023-05-07T04:32:20;9.17;;;8.27;;
44746;SDS011;30472;49.490;10.972;2023-05-07T04:34:46;9.20;;;8.40;;
44746;SDS011;30472;49.490;10.972;2023-05-07T04:37:11;12.23;;;8.50;;
44746;SDS011;30472;49.490;10.972;2023-05-07T04:39:37;8.37;;;7.57;;
44746;SDS011;30472;49.490;10.972;2023-05-07T04:42:03;8.47;;;7.67;;
44746;SDS011;30472;49.490;10.972;2023-05-07T04:44:28;9.27;;;7.67;;
44746;SDS011;30472;49.490;10.972;2023-05-07T04:46:55;11.23;;;7.77;;
44746;SDS011;30472;49.490;10.972;2023-05-07T04:49:21;9.37;;;8.07;;
44746;SDS011;30472;49.490;10.972;2023-05-07T04:51:47;14.43;;;12.13;;
44746;SDS011;30472;49.490;10.972;2023-05-07T04:54:12;16.43;;;11.53;;
44746;SDS011;30472;49.490;10.972;2023-05-07T04:56:38;14.00;;;10.57;;
44746;SDS011;30472;49.490;10.972;2023-05-07T04:59:03;10.40;;;9.20;;
44746;SDS011;30472;49.490;10.972;2023-05-07T05:01:29;7.67;;;6.40;;
44746;SDS011;30472;49.490;10.972;2023-05-07T05:03:55;9.03;;;7.13;;
44746;SDS011;30472;49.490;10.972;2023-05-07T05:06:20;7.87;;;7.17;;
44746;SDS011;30472;49.490;10.972;2023-05-07T05:08:46;9.20;;;6.50;;
44746;SDS011;30472;49.490;10.972;2023-05-07T05:11:11;7.20;;;6.37;;
44746;SDS011;30472;49.490;10.972;2023-05-07T05:13:37;7.63;;;6.03;;
44746;SDS011;30472;49.490;10.972;2023-05-07T05:16:02;7.87;;;6.77;;
44746;SDS011;30472;49.490;10.972;2023-05-07T05:18:28;8.93;;;6.80;;
44746;SDS011;30472;49.490;10.972;2023-05-07T05:20:54;7.53;;;6.83;;
44746;SDS011;30472;49.490;10.972;2023-05-07T05:23:19;8.30;;;7.33;;
44746;SDS011;30472;49.490;10.972;2023-05-07T05:25:45;7.30;;;6.60;;
44746;SDS011;30472;49.490;10.972;2023-05-07T05:28:10;8.63;;;6.73;;
44746;SDS011;30472;49.490;10.972;2023-05-07T05:30:36;14.63;;;7.00;;
44746;SDS011;30472;49.490;10.972;2023-05-07T05:33:02;6.87;;;6.27;;
44746;SDS011;30472;49.490;10.972;2023-05-07T05:35:27;7.00;;;6.37;;
44746;SDS011;30472;49.490;10.972;2023-05-07T05:37:53;7.17;;;6.57;;
44746;SDS011;30472;49.490;10.972;2023-05-07T05:40:18;7.13;;;6.43;;
44746;SDS011;30472;49.490;10.972;2023-05-07T05:42:44;9.83;;;6.73;;
44746;SDS011;30472;49.490;10.972;2023-05-07T05:45:09;7.80;;;7.10;;
44746;SDS011;30472;49.490;10.972;2023-05-07T05:47:35;6.97;;;6.27;;
44746;SDS011;30472;49.490;10.972;2023-05-07T05:50:01;8.27;;;7.47;;
44746;SDS011;30472;49.490;10.972;2023-05-07T05:52:26;11.17;;;7.43;;
44746;SDS011;30472;49.490;10.972;2023-05-07T05:54:53;7.93;;;7.23;;
44746;SDS011;30472;49.490;10.972;2023-05-07T05:57:18;8.27;;;7.40;;
44746;SDS011;30472;49.490;10.972;2023-05-07T05:59:44;9.37;;;7.63;;
44746;SDS011;30472;49.490;10.972;2023-05-07T06:02:10;7.67;;;6.70;;
44746;SDS011;30472;49.490;10.972;2023-05-07T06:04:35;6.97;;;6.27;;
44746;SDS011;30472;49.490;10.972;2023-05-07T06:07:01;9.17;;;6.60;;
44746;SDS011;30472;49.490;10.972;2023-05-07T06:09:26;6.90;;;6.20;;
44746;SDS011;30472;49.490;10.972;2023-05-07T06:11:52;6.73;;;6.10;;
44746;SDS011;30472;49.490;10.972;2023-05-07T06:14:17;7.40;;;6.40;;
44746;SDS011;30472;49.490;10.972;2023-05-07T06:16:43;7.40;;;6.60;;
44746;SDS011;30472;49.490;10.972;2023-05-07T06:19:09;6.87;;;5.57;;
44746;SDS011;30472;49.490;10.972;2023-05-07T06:21:34;8.20;;;6.80;;
44746;SDS011;30472;49.490;10.972;2023-05-07T06:24:00;7.27;;;6.57;;
44746;SDS011;30472;49.490;10.972;2023-05-07T06:26:26;9.13;;;6.60;;
44746;SDS011;30472;49.490;10.972;2023-05-07T06:28:51;8.70;;;5.73;;
44746;SDS011;30472;49.490;10.972;2023-05-07T06:31:17;8.57;;;5.90;;
44746;SDS011;30472;49.490;10.972;2023-05-07T06:33:45;7.20;;;6.07;;
44746;SDS011;30472;49.490;10.972;2023-05-07T06:36:11;7.00;;;6.30;;
44746;SDS011;30472;49.490;10.972;2023-05-07T06:38:37;6.53;;;5.50;;
44746;SDS011;30472;49.490;10.972;2023-05-07T06:41:05;9.97;;;6.07;;
44746;SDS011;30472;49.490;10.972;2023-05-07T06:43:31;7.10;;;6.40;;
44746;SDS011;30472;49.490;10.972;2023-05-07T06:45:57;6.27;;;5.67;;
44746;SDS011;30472;49.490;10.972;2023-05-07T06:48:22;6.77;;;5.70;;
44746;SDS011;30472;49.490;10.972;2023-05-07T06:50:48;5.67;;;5.13;;
44746;SDS011;30472;49.490;10.972;2023-05-07T06:53:13;5.93;;;5.40;;
44746;SDS011;30472;49.490;10.972;2023-05-07T06:55:39;5.80;;;5.23;;
44746;SDS011;30472;49.490;10.972;2023-05-07T06:58:05;9.43;;;5.23;;
44746;SDS011;30472;49.490;10.972;2023-05-07T07:00:31;6.50;;;5.80;;
44746;SDS011;30472;49.490;10.972;2023-05-07T07:02:56;6.27;;;4.90;;
44746;SDS011;30472;49.490;10.972;2023-05-07T07:05:22;6.03;;;5.37;;
44746;SDS011;30472;49.490;10.972;2023-05-07T07:07:48;5.90;;;4.80;;
44746;SDS011;30472;49.490;10.972;2023-05-07T07:10:19;7.47;;;5.22;;
44746;SDS011;30472;49.490;10.972;2023-05-07T07:12:45;6.45;;;5.10;;
44746;SDS011;30472;49.490;10.972;2023-05-07T07:15:11;5.63;;;5.05;;
44746;SDS011;30472;49.490;10.972;2023-05-07T07:17:36;5.70;;;4.88;;
44746;SDS011;30472;49.490;10.972;2023-05-07T07:20:02;5.05;;;4.60;;
44746;SDS011;30472;49.490;10.972;2023-05-07T07:22:28;5.38;;;4.88;;
44746;SDS011;30472;49.490;10.972;2023-05-07T07:24:54;5.85;;;5.03;;
44746;SDS011;30472;49.490;10.972;2023-05-07T07:27:19;6.90;;;4.95;;
44746;SDS011;30472;49.490;10.972;2023-05-07T07:29:45;6.50;;;4.75;;
44746;SDS011;30472;49.490;10.972;2023-05-07T07:32:10;7.30;;;5.50;;
44746;SDS011;30472;49.490;10.972;2023-05-07T07:34:36;8.30;;;4.60;;
44746;SDS011;30472;49.490;10.972;2023-05-07T07:37:02;6.07;;;4.93;;
44746;SDS011;30472;49.490;10.972;2023-05-07T07:39:30;5.60;;;5.10;;
44746;SDS011;30472;49.490;10.972;2023-05-07T07:41:57;6.25;;;4.70;;
44746;SDS011;30472;49.490;10.972;2023-05-07T07:44:22;6.93;;;4.93;;
44746;SDS011;30472;49.490;10.972;2023-05-07T07:46:48;5.22;;;4.65;;
44746;SDS011;30472;49.490;10.972;2023-05-07T07:49:14;8.02;;;4.88;;
44746;SDS011;30472;49.490;10.972;2023-05-07T07:51:39;5.82;;;5.30;;
44746;SDS011;30472;49.490;10.972;2023-05-07T07:54:05;6.18;;;4.70;;
44746;SDS011;30472;49.490;10.972;2023-05-07T07:56:32;5.43;;;4.82;;
44746;SDS011;30472;49.490;10.972;2023-05-07T07:58:58;5.40;;;4.68;;
44746;SDS011;30472;49.490;10.972;2023-05-07T08:01:24;5.45;;;4.28;;
44746;SDS011;30472;49.490;10.972;2023-05-07T08:03:51;5.18;;;4.75;;
44746;SDS011;30472;49.490;10.972;2023-05-07T08:06:16;4.72;;;4.32;;
44746;SDS011;30472;49.490;10.972;2023-05-07T08:08:42;5.57;;;4.45;;
44746;SDS011;30472;49.490;10.972;2023-05-07T08:11:08;5.53;;;4.72;;
44746;SDS011;30472;49.490;10.972;2023-05-07T08:13:34;6.53;;;4.50;;
44746;SDS011;30472;49.490;10.972;2023-05-07T08:15:59;4.47;;;4.05;;
44746;SDS011;30472;49.490;10.972;2023-05-07T08:18:25;5.05;;;3.80;;
44746;SDS011;30472;49.490;10.972;2023-05-07T08:20:53;6.88;;;4.65;;
44746;SDS011;30472;49.490;10.972;2023-05-07T08:23:19;5.00;;;4.40;;
44746;SDS011;30472;49.490;10.972;2023-05-07T08:25:44;4.70;;;4.30;;
44746;SDS011;30472;49.490;10.972;2023-05-07T08:28:10;4.55;;;4.15;;
44746;SDS011;30472;49.490;10.972;2023-05-07T08:30:35;5.57;;;4.13;;
44746;SDS011;30472;49.490;10.972;2023-05-07T08:33:01;5.63;;;4.20;;
44746;SDS011;30472;49.490;10.972;2023-05-07T08:35:27;7.90;;;4.40;;
44746;SDS011;30472;49.490;10.972;2023-05-07T08:37:52;5.32;;;4.03;;
44746;SDS011;30472;49.490;10.972;2023-05-07T08:40:18;5.68;;;3.90;;
44746;SDS011;30472;49.490;10.972;2023-05-07T08:42:45;4.85;;;3.85;;
44746;SDS011;30472;49.490;10.972;2023-05-07T08:45:13;4.13;;;3.42;;
44746;SDS011;30472;49.490;10.972;2023-05-07T08:47:43;4.00;;;3.50;;
44746;SDS011;30472;49.490;10.972;2023-05-07T08:50:11;5.00;;;3.60;;
44746;SDS011;30472;49.490;10.972;2023-05-07T08:52:37;4.13;;;3.80;;
44746;SDS011;30472;49.490;10.972;2023-05-07T08:55:03;4.00;;;3.60;;
44746;SDS011;30472;49.490;10.972;2023-05-07T08:57:30;4.57;;;3.60;;
44746;SDS011;30472;49.490;10.972;2023-05-07T08:59:55;4.47;;;4.07;;
44746;SDS011;30472;49.490;10.972;2023-05-07T09:02:21;4.53;;;4.13;;
44746;SDS011;30472;49.490;10.972;2023-05-07T09:04:46;4.20;;;3.80;;
44746;SDS011;30472;49.490;10.972;2023-05-07T09:07:12;5.53;;;3.70;;
44746;SDS011;30472;49.490;10.972;2023-05-07T09:09:38;4.35;;;3.95;;
44746;SDS011;30472;49.490;10.972;2023-05-07T09:12:03;4.65;;;4.28;;
44746;SDS011;30472;49.490;10.972;2023-05-07T09:14:29;4.20;;;3.80;;
44746;SDS011;30472;49.490;10.972;2023-05-07T09:16:55;5.25;;;3.88;;
44746;SDS011;30472;49.490;10.972;2023-05-07T09:19:25;3.83;;;3.30;;
44746;SDS011;30472;49.490;10.972;2023-05-07T09:22:01;4.40;;;4.00;;
44746;SDS011;30472;49.490;10.972;2023-05-07T09:24:28;4.25;;;3.85;;
44746;SDS011;30472;49.490;10.972;2023-05-07T09:26:58;4.38;;;3.80;;
44746;SDS011;30472;49.490;10.972;2023-05-07T09:29:25;4.10;;;3.70;;
44746;SDS011;30472;49.490;10.972;2023-05-07T09:31:51;4.35;;;3.95;;
44746;SDS011;30472;49.490;10.972;2023-05-07T09:34:16;3.85;;;3.40;;
44746;SDS011;30472;49.490;10.972;2023-05-07T09:36:42;4.00;;;3.70;;
44746;SDS011;30472;49.490;10.972;2023-05-07T09:39:07;3.92;;;3.55;;
44746;SDS011;30472;49.490;10.972;2023-05-07T09:41:33;3.53;;;3.22;;
44746;SDS011;30472;49.490;10.972;2023-05-07T09:44:09;4.13;;;3.47;;
44746;SDS011;30472;49.490;10.972;2023-05-07T09:46:34;6.72;;;3.65;;
44746;SDS011;30472;49.490;10.972;2023-05-07T09:49:03;4.47;;;3.40;;
44746;SDS011;30472;49.490;10.972;2023-05-07T09:51:38;3.65;;;3.35;;
44746;SDS011;30472;49.490;10.972;2023-05-07T09:54:08;4.20;;;3.80;;
44746;SDS011;30472;49.490;10.972;2023-05-07T09:56:35;5.22;;;3.58;;
44746;SDS011;30472;49.490;10.972;2023-05-07T09:59:02;3.67;;;3.38;;
44746;SDS011;30472;49.490;10.972;2023-05-07T10:01:29;5.57;;;3.78;;
44746;SDS011;30472;49.490;10.972;2023-05-07T10:03:56;6.03;;;3.42;;
44746;SDS011;30472;49.490;10.972;2023-05-07T10:06:23;6.68;;;4.07;;
44746;SDS011;30472;49.490;10.972;2023-05-07T10:08:50;3.78;;;3.42;;
44746;SDS011;30472;49.490;10.972;2023-05-07T10:11:17;5.32;;;3.53;;
44746;SDS011;30472;49.490;10.972;2023-05-07T10:13:44;3.65;;;3.40;;
44746;SDS011;30472;49.490;10.972;2023-05-07T10:16:12;5.45;;;3.70;;
44746;SDS011;30472;49.490;10.972;2023-05-07T10:18:40;6.95;;;3.67;;
44746;SDS011;30472;49.490;10.972;2023-05-07T10:21:39;6.22;;;3.92;;
44746;SDS011;30472;49.490;10.972;2023-05-07T10:24:05;4.85;;;3.30;;
44746;SDS011;30472;49.490;10.972;2023-05-07T10:26:39;4.88;;;3.80;;
44746;SDS011;30472;49.490;10.972;2023-05-07T10:29:11;3.45;;;3.15;;
44746;SDS011;30472;49.490;10.972;2023-05-07T10:34:26;5.78;;;3.55;;
44746;SDS011;30472;49.490;10.972;2023-05-07T10:36:57;3.40;;;3.10;;
44746;SDS011;30472;49.490;10.972;2023-05-07T10:39:23;3.97;;;3.38;;
44746;SDS011;30472;49.490;10.972;2023-05-07T10:41:49;3.75;;;3.45;;
44746;SDS011;30472;49.490;10.972;2023-05-07T10:44:27;4.15;;;3.75;;
44746;SDS011;30472;49.490;10.972;2023-05-07T10:47:15;4.57;;;4.15;;
44746;SDS011;30472;49.490;10.972;2023-05-07T10:52:23;4.35;;;3.17;;
44746;SDS011;30472;49.490;10.972;2023-05-07T10:57:50;3.38;;;3.08;;
44746;SDS011;30472;49.490;10.972;2023-05-07T11:05:25;8.35;;;3.15;;
44746;SDS011;30472;49.490;10.972;2023-05-07T11:07:55;4.13;;;3.08;;
44746;SDS011;30472;49.490;10.972;2023-05-07T11:10:21;5.32;;;3.03;;
44746;SDS011;30472;49.490;10.972;2023-05-07T11:12:47;3.88;;;3.10;;
44746;SDS011;30472;49.490;10.972;2023-05-07T11:15:38;3.70;;;3.05;;
44746;SDS011;30472;49.490;10.972;2023-05-07T11:18:16;5.05;;;3.38;;
44746;SDS011;30472;49.490;10.972;2023-05-07T11:20:49;5.40;;;2.97;;
44746;SDS011;30472;49.490;10.972;2023-05-07T11:26:00;5.40;;;2.78;;
44746;SDS011;30472;49.490;10.972;2023-05-07T11:28:27;3.22;;;2.45;;
44746;SDS011;30472;49.490;10.972;2023-05-07T11:30:53;3.45;;;3.15;;
44746;SDS011;30472;49.490;10.972;2023-05-07T11:33:19;2.70;;;2.50;;
44746;SDS011;30472;49.490;10.972;2023-05-07T11:35:45;3.35;;;3.03;;
44746;SDS011;30472;49.490;10.972;2023-05-07T11:38:12;2.78;;;2.50;;
44746;SDS011;30472;49.490;10.972;2023-05-07T11:40:51;2.95;;;2.75;;
44746;SDS011;30472;49.490;10.972;2023-05-07T11:43:18;3.28;;;2.47;;
44746;SDS011;30472;49.490;10.972;2023-05-07T11:45:47;3.20;;;2.78;;
44746;SDS011;30472;49.490;10.972;2023-05-07T11:48:13;3.38;;;2.67;;
44746;SDS011;30472;49.490;10.972;2023-05-07T11:53:27;5.40;;;2.90;;
44746;SDS011;30472;49.490;10.972;2023-05-07T11:55:55;4.05;;;2.70;;
44746;SDS011;30472;49.490;10.972;2023-05-07T11:58:21;4.45;;;2.58;;
44746;SDS011;30472;49.490;10.972;2023-05-07T12:00:48;4.40;;;2.60;;
44746;SDS011;30472;49.490;10.972;2023-05-07T12:03:14;3.60;;;2.40;;
44746;SDS011;30472;49.490;10.972;2023-05-07T12:05:40;3.97;;;2.33;;
44746;SDS011;30472;49.490;10.972;2023-05-07T12:08:06;3.47;;;2.88;;
44746;SDS011;30472;49.490;10.972;2023-05-07T12:10:32;3.53;;;2.50;;
44746;SDS011;30472;49.490;10.972;2023-05-07T12:12:58;3.92;;;2.70;;
44746;SDS011;30472;49.490;10.972;2023-05-07T12:15:23;4.65;;;2.88;;
44746;SDS011;30472;49.490;10.972;2023-05-07T12:17:49;3.58;;;2.80;;
44746;SDS011;30472;49.490;10.972;2023-05-07T12:20:15;3.83;;;3.08;;
44746;SDS011;30472;49.490;10.972;2023-05-07T12:22:41;3.55;;;3.05;;
44746;SDS011;30472;49.490;10.972;2023-05-07T12:25:08;3.38;;;2.90;;
44746;SDS011;30472;49.490;10.972;2023-05-07T12:27:36;3.63;;;2.75;;
44746;SDS011;30472;49.490;10.972;2023-05-07T12:30:03;3.05;;;2.78;;
44746;SDS011;30472;49.490;10.972;2023-05-07T12:32:28;3.33;;;2.90;;
44746;SDS011;30472;49.490;10.972;2023-05-07T12:34:54;3.90;;;2.60;;
44746;SDS011;30472;49.490;10.972;2023-05-07T12:37:25;2.55;;;2.35;;
44746;SDS011;30472;49.490;10.972;2023-05-07T12:40:04;2.72;;;2.45;;
44746;SDS011;30472;49.490;10.972;2023-05-07T12:42:39;3.10;;;2.70;;
44746;SDS011;30472;49.490;10.972;2023-05-07T12:45:11;3.13;;;2.83;;
44746;SDS011;30472;49.490;10.972;2023-05-07T12:47:38;5.30;;;3.70;;
44746;SDS011;30472;49.490;10.972;2023-05-07T12:50:07;3.50;;;3.20;;
44746;SDS011;30472;49.490;10.972;2023-05-07T12:52:33;4.30;;;2.53;;
44746;SDS011;30472;49.490;10.972;2023-05-07T12:55:04;3.80;;;3.00;;
44746;SDS011;30472;49.490;10.972;2023-05-07T12:57:31;5.32;;;2.58;;
44746;SDS011;30472;49.490;10.972;2023-05-07T13:00:04;6.90;;;4.65;;
44746;SDS011;30472;49.490;10.972;2023-05-07T13:02:34;2.83;;;2.63;;
44746;SDS011;30472;49.490;10.972;2023-05-07T13:05:02;3.28;;;2.97;;
44746;SDS011;30472;49.490;10.972;2023-05-07T13:07:28;4.68;;;4.28;;
44746;SDS011;30472;49.490;10.972;2023-05-07T13:09:53;4.38;;;3.97;;
44746;SDS011;30472;49.490;10.972;2023-05-07T13:12:19;2.75;;;2.55;;
44746;SDS011;30472;49.490;10.972;2023-05-07T13:14:44;6.57;;;5.97;;
44746;SDS011;30472;49.490;10.972;2023-05-07T13:17:10;3.15;;;2.60;;
44746;SDS011;30472;49.490;10.972;2023-05-07T13:19:35;3.13;;;2.42;;
44746;SDS011;30472;49.490;10.972;2023-05-07T13:22:02;3.67;;;2.75;;
44746;SDS011;30472;49.490;10.972;2023-05-07T13:24:28;3.13;;;2.58;;
44746;SDS011;30472;49.490;10.972;2023-05-07T13:26:54;4.18;;;3.78;;
44746;SDS011;30472;49.490;10.972;2023-05-07T13:29:19;3.00;;;2.70;;
44746;SDS011;30472;49.490;10.972;2023-05-07T13:31:47;4.75;;;2.22;;
44746;SDS011;30472;49.490;10.972;2023-05-07T13:34:12;4.22;;;2.40;;
44746;SDS011;30472;49.490;10.972;2023-05-07T13:36:38;4.85;;;4.07;;
44746;SDS011;30472;49.490;10.972;2023-05-07T13:39:04;5.28;;;4.53;;
44746;SDS011;30472;49.490;10.972;2023-05-07T13:41:31;4.45;;;2.90;;
44746;SDS011;30472;49.490;10.972;2023-05-07T13:43:57;3.47;;;3.17;;
44746;SDS011;30472;49.490;10.972;2023-05-07T13:46:23;4.07;;;2.20;;
44746;SDS011;30472;49.490;10.972;2023-05-07T13:48:49;4.30;;;2.33;;
44746;SDS011;30472;49.490;10.972;2023-05-07T13:51:16;8.27;;;7.50;;
44746;SDS011;30472;49.490;10.972;2023-05-07T13:53:42;4.10;;;3.60;;
44746;SDS011;30472;49.490;10.972;2023-05-07T13:56:07;4.15;;;2.67;;
44746;SDS011;30472;49.490;10.972;2023-05-07T13:58:33;2.60;;;2.40;;
44746;SDS011;30472;49.490;10.972;2023-05-07T14:00:58;3.10;;;2.65;;
44746;SDS011;30472;49.490;10.972;2023-05-07T14:03:24;5.28;;;4.78;;
44746;SDS011;30472;49.490;10.972;2023-05-07T14:05:49;2.70;;;2.17;;
44746;SDS011;30472;49.490;10.972;2023-05-07T14:08:15;10.15;;;9.13;;
44746;SDS011;30472;49.490;10.972;2023-05-07T14:10:43;4.90;;;4.50;;
44746;SDS011;30472;49.490;10.972;2023-05-07T14:13:09;6.47;;;5.88;;
44746;SDS011;30472;49.490;10.972;2023-05-07T14:15:35;2.70;;;2.50;;
44746;SDS011;30472;49.490;10.972;2023-05-07T14:18:01;3.38;;;3.05;;
44746;SDS011;30472;49.490;10.972;2023-05-07T14:20:27;2.60;;;2.40;;
44746;SDS011;30472;49.490;10.972;2023-05-07T14:22:53;2.88;;;2.55;;
44746;SDS011;30472;49.490;10.972;2023-05-07T14:25:18;3.45;;;3.10;;
44746;SDS011;30472;49.490;10.972;2023-05-07T14:27:44;3.10;;;2.80;;
44746;SDS011;30472;49.490;10.972;2023-05-07T14:30:09;6.78;;;4.70;;
44746;SDS011;30472;49.490;10.972;2023-05-07T14:32:35;4.65;;;3.83;;
44746;SDS011;30472;49.490;10.972;2023-05-07T14:35:01;6.35;;;5.75;;
44746;SDS011;30472;49.490;10.972;2023-05-07T14:37:26;4.43;;;4.03;;
44746;SDS011;30472;49.490;10.972;2023-05-07T14:39:53;4.78;;;4.38;;
44746;SDS011;30472;49.490;10.972;2023-05-07T14:42:18;3.65;;;3.35;;
44746;SDS011;30472;49.490;10.972;2023-05-07T14:44:44;5.57;;;5.05;;
44746;SDS011;30472;49.490;10.972;2023-05-07T14:47:11;7.20;;;6.50;;
44746;SDS011;30472;49.490;10.972;2023-05-07T14:49:37;3.40;;;2.80;;